Terminal Aerodrome Forecast
Issued by NWS

Home | Current Version | Previous Version | Text Only | Print | Product List | Glossary On
Versions: 1 2 3 4 5 6 7 8 9 10 11 12 13 14 15
563
FTUS44 KEPZ 291129
TAFDMN
TAF
KDMN 291129Z 2912/3012 01007G17KT P6SM VCSH SCT050 BKN090 OVC130
     FM291500 27018G28KT P6SM SCT050 BKN070 BKN100
     FM292300 32015G25KT P6SM FEW050 SCT070 BKN100
     FM300300 02012G20KT P6SM FEW040 SCT070 SCT110=

USA.gov is the U.S. government's official web portal to all federal, state and local government web resources and services.